sensor_id;sensor_type;location;lat;lon;timestamp;temperature;humidity
69393;SHT31;56582;44.624;20.378;2022-10-19T00:01:17;16.12;64.99
69393;SHT31;56582;44.624;20.378;2022-10-19T00:03:45;16.04;66.32
69393;SHT31;56582;44.624;20.378;2022-10-19T00:06:22;15.96;65.54
69393;SHT31;56582;44.624;20.378;2022-10-19T00:08:56;15.85;66.49
69393;SHT31;56582;44.624;20.378;2022-10-19T00:11:23;15.86;66.58
69393;SHT31;56582;44.624;20.378;2022-10-19T00:13:49;15.81;66.72
69393;SHT31;56582;44.624;20.378;2022-10-19T00:16:15;15.78;65.88
69393;SHT31;56582;44.624;20.378;2022-10-19T00:18:42;15.17;57.87
69393;SHT31;56582;44.624;20.378;2022-10-19T00:21:10;14.52;56.96
69393;SHT31;56582;44.624;20.378;2022-10-19T00:23:36;13.74;58.13
69393;SHT31;56582;44.624;20.378;2022-10-19T00:26:02;13.73;58.52
69393;SHT31;56582;44.624;20.378;2022-10-19T00:28:28;13.32;58.82
69393;SHT31;56582;44.624;20.378;2022-10-19T00:30:53;12.92;60.09
69393;SHT31;56582;44.624;20.378;2022-10-19T00:33:19;12.81;61.21
69393;SHT31;56582;44.624;20.378;2022-10-19T00:35:49;12.71;61.55
69393;SHT31;56582;44.624;20.378;2022-10-19T00:38:16;12.53;62.01
69393;SHT31;56582;44.624;20.378;2022-10-19T00:40:42;12.29;62.06
69393;SHT31;56582;44.624;20.378;2022-10-19T00:43:13;11.89;63.55
69393;SHT31;56582;44.624;20.378;2022-10-19T00:45:39;11.76;64.31
69393;SHT31;56582;44.624;20.378;2022-10-19T00:48:05;11.44;65.66
69393;SHT31;56582;44.624;20.378;2022-10-19T00:50:31;11.30;66.31
69393;SHT31;56582;44.624;20.378;2022-10-19T00:52:56;11.21;66.62
69393;SHT31;56582;44.624;20.378;2022-10-19T00:55:23;11.20;67.07
69393;SHT31;56582;44.624;20.378;2022-10-19T00:57:49;11.00;66.50
69393;SHT31;56582;44.624;20.378;2022-10-19T01:00:14;11.14;66.02
69393;SHT31;56582;44.624;20.378;2022-10-19T01:02:40;11.06;65.63
69393;SHT31;56582;44.624;20.378;2022-10-19T01:05:06;11.13;65.60
69393;SHT31;56582;44.624;20.378;2022-10-19T01:07:32;11.07;65.53
69393;SHT31;56582;44.624;20.378;2022-10-19T01:09:58;11.04;65.43
69393;SHT31;56582;44.624;20.378;2022-10-19T01:34:04;10.56;69.70
69393;SHT31;56582;44.624;20.378;2022-10-19T01:39:09;10.45;70.08
69393;SHT31;56582;44.624;20.378;2022-10-19T01:42:01;10.46;70.10
69393;SHT31;56582;44.624;20.378;2022-10-19T01:47:17;10.48;70.54
69393;SHT31;56582;44.624;20.378;2022-10-19T01:49:52;10.00;72.79
69393;SHT31;56582;44.624;20.378;2022-10-19T01:52:20;10.11;72.44
69393;SHT31;56582;44.624;20.378;2022-10-19T01:54:53;10.08;72.84
69393;SHT31;56582;44.624;20.378;2022-10-19T01:57:32;10.07;72.84
69393;SHT31;56582;44.624;20.378;2022-10-19T01:59:59;10.02;73.03
69393;SHT31;56582;44.624;20.378;2022-10-19T02:02:34;10.04;73.09
69393;SHT31;56582;44.624;20.378;2022-10-19T02:05:02;10.00;72.94
69393;SHT31;56582;44.624;20.378;2022-10-19T02:07:29;9.97;73.46
69393;SHT31;56582;44.624;20.378;2022-10-19T02:09:55;9.64;74.50
69393;SHT31;56582;44.624;20.378;2022-10-19T02:12:21;9.77;74.46
69393;SHT31;56582;44.624;20.378;2022-10-19T02:14:51;9.70;74.81
69393;SHT31;56582;44.624;20.378;2022-10-19T02:17:24;9.49;75.23
69393;SHT31;56582;44.624;20.378;2022-10-19T02:19:52;9.63;74.96
69393;SHT31;56582;44.624;20.378;2022-10-19T02:22:18;9.69;74.49
69393;SHT31;56582;44.624;20.378;2022-10-19T02:24:43;9.64;74.83
69393;SHT31;56582;44.624;20.378;2022-10-19T02:27:09;9.70;74.58
69393;SHT31;56582;44.624;20.378;2022-10-19T02:29:36;9.63;74.66
69393;SHT31;56582;44.624;20.378;2022-10-19T02:32:03;9.47;75.20
69393;SHT31;56582;44.624;20.378;2022-10-19T02:34:29;9.44;75.35
69393;SHT31;56582;44.624;20.378;2022-10-19T02:36:55;9.46;75.38
69393;SHT31;56582;44.624;20.378;2022-10-19T02:39:21;9.32;75.70
69393;SHT31;56582;44.624;20.378;2022-10-19T02:41:51;9.46;74.93
69393;SHT31;56582;44.624;20.378;2022-10-19T02:44:22;9.43;74.85
69393;SHT31;56582;44.624;20.378;2022-10-19T02:46:58;9.36;74.83
69393;SHT31;56582;44.624;20.378;2022-10-19T02:49:26;9.26;74.63
69393;SHT31;56582;44.624;20.378;2022-10-19T02:52:06;9.35;74.59
69393;SHT31;56582;44.624;20.378;2022-10-19T02:54:33;9.36;74.39
69393;SHT31;56582;44.624;20.378;2022-10-19T02:56:58;9.31;74.23
69393;SHT31;56582;44.624;20.378;2022-10-19T02:59:24;9.16;74.81
69393;SHT31;56582;44.624;20.378;2022-10-19T03:01:50;9.28;74.30
69393;SHT31;56582;44.624;20.378;2022-10-19T03:04:16;9.19;74.77
69393;SHT31;56582;44.624;20.378;2022-10-19T03:06:42;9.14;74.82
69393;SHT31;56582;44.624;20.378;2022-10-19T03:09:07;9.18;74.03
69393;SHT31;56582;44.624;20.378;2022-10-19T03:11:33;9.21;74.59
69393;SHT31;56582;44.624;20.378;2022-10-19T03:13:58;9.15;74.59
69393;SHT31;56582;44.624;20.378;2022-10-19T03:16:24;9.22;74.24
69393;SHT31;56582;44.624;20.378;2022-10-19T03:18:50;9.26;73.99
69393;SHT31;56582;44.624;20.378;2022-10-19T03:21:16;9.12;74.88
69393;SHT31;56582;44.624;20.378;2022-10-19T03:23:42;9.22;74.36
69393;SHT31;56582;44.624;20.378;2022-10-19T03:26:12;9.16;74.89
69393;SHT31;56582;44.624;20.378;2022-10-19T03:28:38;9.16;75.68
69393;SHT31;56582;44.624;20.378;2022-10-19T03:31:03;9.38;76.06
69393;SHT31;56582;44.624;20.378;2022-10-19T03:33:29;9.14;76.93
69393;SHT31;56582;44.624;20.378;2022-10-19T03:36:18;8.92;77.67
69393;SHT31;56582;44.624;20.378;2022-10-19T03:38:44;8.97;83.58
69393;SHT31;56582;44.624;20.378;2022-10-19T03:41:10;9.02;81.46
69393;SHT31;56582;44.624;20.378;2022-10-19T03:43:35;9.39;92.52
69393;SHT31;56582;44.624;20.378;2022-10-19T03:46:01;9.25;91.66
69393;SHT31;56582;44.624;20.378;2022-10-19T03:48:26;9.33;92.11
69393;SHT31;56582;44.624;20.378;2022-10-19T03:51:03;9.97;95.31
69393;SHT31;56582;44.624;20.378;2022-10-19T03:53:29;10.11;95.90
69393;SHT31;56582;44.624;20.378;2022-10-19T03:56:07;9.67;94.97
69393;SHT31;56582;44.624;20.378;2022-10-19T03:58:34;9.07;89.39
69393;SHT31;56582;44.624;20.378;2022-10-19T04:01:00;8.89;87.33
69393;SHT31;56582;44.624;20.378;2022-10-19T04:03:26;8.87;87.51
69393;SHT31;56582;44.624;20.378;2022-10-19T04:05:52;8.92;84.98
69393;SHT31;56582;44.624;20.378;2022-10-19T04:08:25;8.91;83.27
69393;SHT31;56582;44.624;20.378;2022-10-19T04:10:50;8.73;85.23
69393;SHT31;56582;44.624;20.378;2022-10-19T04:13:15;9.11;87.87
69393;SHT31;56582;44.624;20.378;2022-10-19T04:15:41;9.69;92.18
69393;SHT31;56582;44.624;20.378;2022-10-19T04:18:06;9.64;91.25
69393;SHT31;56582;44.624;20.378;2022-10-19T04:20:32;9.83;91.80
69393;SHT31;56582;44.624;20.378;2022-10-19T04:22:58;10.04;92.38
69393;SHT31;56582;44.624;20.378;2022-10-19T04:25:23;10.11;90.62
69393;SHT31;56582;44.624;20.378;2022-10-19T04:27:48;10.28;90.31
69393;SHT31;56582;44.624;20.378;2022-10-19T04:30:14;10.27;89.03
69393;SHT31;56582;44.624;20.378;2022-10-19T04:32:39;10.32;87.93
69393;SHT31;56582;44.624;20.378;2022-10-19T04:35:05;10.34;87.70
69393;SHT31;56582;44.624;20.378;2022-10-19T04:37:31;10.28;86.06
69393;SHT31;56582;44.624;20.378;2022-10-19T04:39:56;10.39;86.79
69393;SHT31;56582;44.624;20.378;2022-10-19T04:42:22;10.50;86.73
69393;SHT31;56582;44.624;20.378;2022-10-19T04:44:47;10.56;85.96
69393;SHT31;56582;44.624;20.378;2022-10-19T04:47:12;10.65;85.69
69393;SHT31;56582;44.624;20.378;2022-10-19T04:49:38;10.73;85.32
69393;SHT31;56582;44.624;20.378;2022-10-19T04:52:06;10.72;83.71
69393;SHT31;56582;44.624;20.378;2022-10-19T04:54:32;10.68;81.17
69393;SHT31;56582;44.624;20.378;2022-10-19T04:56:57;10.77;84.22
69393;SHT31;56582;44.624;20.378;2022-10-19T04:59:23;10.55;79.16
69393;SHT31;56582;44.624;20.378;2022-10-19T05:01:48;10.55;81.38
69393;SHT31;56582;44.624;20.378;2022-10-19T05:04:14;10.58;81.48
69393;SHT31;56582;44.624;20.378;2022-10-19T05:06:39;10.60;82.06
69393;SHT31;56582;44.624;20.378;2022-10-19T05:09:05;10.65;82.01
69393;SHT31;56582;44.624;20.378;2022-10-19T05:11:30;10.63;80.82
69393;SHT31;56582;44.624;20.378;2022-10-19T05:13:56;10.58;84.21
69393;SHT31;56582;44.624;20.378;2022-10-19T05:16:22;10.66;83.19
69393;SHT31;56582;44.624;20.378;2022-10-19T05:18:53;10.68;81.44
69393;SHT31;56582;44.624;20.378;2022-10-19T05:21:24;10.81;83.66
69393;SHT31;56582;44.624;20.378;2022-10-19T05:23:52;10.90;83.11
69393;SHT31;56582;44.624;20.378;2022-10-19T05:26:20;10.97;83.11
69393;SHT31;56582;44.624;20.378;2022-10-19T05:28:50;11.07;82.64
69393;SHT31;56582;44.624;20.378;2022-10-19T05:31:20;11.07;82.03
69393;SHT31;56582;44.624;20.378;2022-10-19T05:33:46;11.03;81.92
69393;SHT31;56582;44.624;20.378;2022-10-19T05:36:23;11.04;81.36
69393;SHT31;56582;44.624;20.378;2022-10-19T05:38:54;11.00;82.92
69393;SHT31;56582;44.624;20.378;2022-10-19T05:41:21;10.89;78.36
69393;SHT31;56582;44.624;20.378;2022-10-19T05:44:00;10.90;80.95
69393;SHT31;56582;44.624;20.378;2022-10-19T05:46:27;10.87;79.47
69393;SHT31;56582;44.624;20.378;2022-10-19T05:48:55;10.87;80.82
69393;SHT31;56582;44.624;20.378;2022-10-19T05:51:21;10.80;81.95
69393;SHT31;56582;44.624;20.378;2022-10-19T05:53:47;10.86;81.45
69393;SHT31;56582;44.624;20.378;2022-10-19T05:56:15;10.84;80.06
69393;SHT31;56582;44.624;20.378;2022-10-19T05:58:41;10.77;80.87
69393;SHT31;56582;44.624;20.378;2022-10-19T06:01:07;10.99;81.86
69393;SHT31;56582;44.624;20.378;2022-10-19T06:03:34;11.00;80.74
69393;SHT31;56582;44.624;20.378;2022-10-19T06:06:02;11.14;81.21
69393;SHT31;56582;44.624;20.378;2022-10-19T06:08:27;10.87;79.73
69393;SHT31;56582;44.624;20.378;2022-10-19T06:11:04;10.58;80.86
69393;SHT31;56582;44.624;20.378;2022-10-19T06:13:29;10.81;81.31
69393;SHT31;56582;44.624;20.378;2022-10-19T06:15:55;11.11;82.15
69393;SHT31;56582;44.624;20.378;2022-10-19T06:18:20;11.25;80.77
69393;SHT31;56582;44.624;20.378;2022-10-19T06:20:50;11.54;81.19
69393;SHT31;56582;44.624;20.378;2022-10-19T06:23:15;11.66;80.57
69393;SHT31;56582;44.624;20.378;2022-10-19T06:25:41;11.68;79.44
69393;SHT31;56582;44.624;20.378;2022-10-19T06:28:07;11.66;78.44
69393;SHT31;56582;44.624;20.378;2022-10-19T06:30:32;11.71;79.69
69393;SHT31;56582;44.624;20.378;2022-10-19T06:32:58;11.87;79.30
69393;SHT31;56582;44.624;20.378;2022-10-19T06:35:23;12.03;79.78
69393;SHT31;56582;44.624;20.378;2022-10-19T06:37:49;11.95;78.96
69393;SHT31;56582;44.624;20.378;2022-10-19T06:40:14;12.05;79.07
69393;SHT31;56582;44.624;20.378;2022-10-19T06:42:40;12.07;79.32
69393;SHT31;56582;44.624;20.378;2022-10-19T06:45:07;12.34;79.55
69393;SHT31;56582;44.624;20.378;2022-10-19T06:47:33;12.45;79.12
69393;SHT31;56582;44.624;20.378;2022-10-19T06:49:59;12.53;78.69
69393;SHT31;56582;44.624;20.378;2022-10-19T06:52:24;12.61;78.45
69393;SHT31;56582;44.624;20.378;2022-10-19T06:54:50;12.85;78.19
69393;SHT31;56582;44.624;20.378;2022-10-19T06:57:15;12.93;77.97
69393;SHT31;56582;44.624;20.378;2022-10-19T06:59:41;13.08;77.06
69393;SHT31;56582;44.624;20.378;2022-10-19T07:02:06;13.33;77.20
69393;SHT31;56582;44.624;20.378;2022-10-19T07:04:31;13.27;77.43
69393;SHT31;56582;44.624;20.378;2022-10-19T07:06:57;13.32;77.06
69393;SHT31;56582;44.624;20.378;2022-10-19T07:09:22;13.33;77.10
69393;SHT31;56582;44.624;20.378;2022-10-19T07:11:48;13.39;76.96
69393;SHT31;56582;44.624;20.378;2022-10-19T07:14:13;13.47;76.63
69393;SHT31;56582;44.624;20.378;2022-10-19T07:16:39;13.19;77.34
69393;SHT31;56582;44.624;20.378;2022-10-19T07:19:05;13.12;77.30
69393;SHT31;56582;44.624;20.378;2022-10-19T07:21:30;13.09;77.61
69393;SHT31;56582;44.624;20.378;2022-10-19T07:23:56;13.12;77.69
69393;SHT31;56582;44.624;20.378;2022-10-19T07:26:23;13.15;77.51
69393;SHT31;56582;44.624;20.378;2022-10-19T07:28:51;13.42;78.12
69393;SHT31;56582;44.624;20.378;2022-10-19T07:31:20;13.43;77.92
69393;SHT31;56582;44.624;20.378;2022-10-19T07:33:46;13.46;77.47
69393;SHT31;56582;44.624;20.378;2022-10-19T07:36:15;13.09;79.38
69393;SHT31;56582;44.624;20.378;2022-10-19T07:38:40;13.50;78.92
69393;SHT31;56582;44.624;20.378;2022-10-19T07:41:14;13.71;77.49
69393;SHT31;56582;44.624;20.378;2022-10-19T07:43:41;13.51;78.72
69393;SHT31;56582;44.624;20.378;2022-10-19T07:46:10;13.85;78.27
69393;SHT31;56582;44.624;20.378;2022-10-19T07:48:35;13.90;77.96
69393;SHT31;56582;44.624;20.378;2022-10-19T07:51:04;13.98;77.97
69393;SHT31;56582;44.624;20.378;2022-10-19T07:53:29;14.08;78.21
69393;SHT31;56582;44.624;20.378;2022-10-19T07:56:04;13.98;77.35
69393;SHT31;56582;44.624;20.378;2022-10-19T07:58:30;14.05;77.66
69393;SHT31;56582;44.624;20.378;2022-10-19T08:01:03;14.02;77.84
69393;SHT31;56582;44.624;20.378;2022-10-19T08:03:29;14.09;77.69
69393;SHT31;56582;44.624;20.378;2022-10-19T08:05:59;13.92;77.58
69393;SHT31;56582;44.624;20.378;2022-10-19T08:08:25;14.08;77.37
69393;SHT31;56582;44.624;20.378;2022-10-19T08:10:50;14.32;77.16
69393;SHT31;56582;44.624;20.378;2022-10-19T08:13:16;14.49;76.40
69393;SHT31;56582;44.624;20.378;2022-10-19T08:15:41;14.59;76.68
69393;SHT31;56582;44.624;20.378;2022-10-19T08:18:06;14.77;75.78
69393;SHT31;56582;44.624;20.378;2022-10-19T08:20:32;14.60;75.73
69393;SHT31;56582;44.624;20.378;2022-10-19T08:22:57;14.57;76.37
69393;SHT31;56582;44.624;20.378;2022-10-19T08:25:23;14.90;75.65
69393;SHT31;56582;44.624;20.378;2022-10-19T08:27:48;14.97;75.25
69393;SHT31;56582;44.624;20.378;2022-10-19T08:30:14;14.80;75.64
69393;SHT31;56582;44.624;20.378;2022-10-19T08:32:39;15.20;75.34
69393;SHT31;56582;44.624;20.378;2022-10-19T08:35:05;15.41;73.51
69393;SHT31;56582;44.624;20.378;2022-10-19T08:37:30;15.27;73.53
69393;SHT31;56582;44.624;20.378;2022-10-19T08:39:56;15.20;74.79
69393;SHT31;56582;44.624;20.378;2022-10-19T08:42:29;15.54;73.88
69393;SHT31;56582;44.624;20.378;2022-10-19T08:45:01;15.25;73.84
69393;SHT31;56582;44.624;20.378;2022-10-19T08:47:58;15.46;74.31
69393;SHT31;56582;44.624;20.378;2022-10-19T08:50:38;15.31;73.85
69393;SHT31;56582;44.624;20.378;2022-10-19T08:53:23;15.55;72.55
69393;SHT31;56582;44.624;20.378;2022-10-19T08:58:50;15.34;73.42
69393;SHT31;56582;44.624;20.378;2022-10-19T09:03:59;15.73;73.47
69393;SHT31;56582;44.624;20.378;2022-10-19T09:06:31;15.92;72.88
69393;SHT31;56582;44.624;20.378;2022-10-19T09:08:58;15.81;72.72
69393;SHT31;56582;44.624;20.378;2022-10-19T09:11:28;15.81;72.82
69393;SHT31;56582;44.624;20.378;2022-10-19T09:16:34;16.40;72.84
69393;SHT31;56582;44.624;20.378;2022-10-19T09:19:00;16.40;72.63
69393;SHT31;56582;44.624;20.378;2022-10-19T09:21:39;16.69;71.50
69393;SHT31;56582;44.624;20.378;2022-10-19T09:24:25;16.69;71.26
69393;SHT31;56582;44.624;20.378;2022-10-19T09:26:54;16.54;71.03
69393;SHT31;56582;44.624;20.378;2022-10-19T09:29:35;16.82;71.10
69393;SHT31;56582;44.624;20.378;2022-10-19T09:32:05;16.91;71.13
69393;SHT31;56582;44.624;20.378;2022-10-19T09:34:38;17.06;70.72
69393;SHT31;56582;44.624;20.378;2022-10-19T09:37:04;17.05;70.65
69393;SHT31;56582;44.624;20.378;2022-10-19T09:39:30;16.99;71.17
69393;SHT31;56582;44.624;20.378;2022-10-19T09:42:06;17.03;71.54
69393;SHT31;56582;44.624;20.378;2022-10-19T09:44:32;17.03;71.43
69393;SHT31;56582;44.624;20.378;2022-10-19T09:47:18;17.05;70.28
69393;SHT31;56582;44.624;20.378;2022-10-19T09:49:46;17.34;71.19
69393;SHT31;56582;44.624;20.378;2022-10-19T09:54:50;17.46;69.47
69393;SHT31;56582;44.624;20.378;2022-10-19T09:57:23;17.75;70.23
69393;SHT31;56582;44.624;20.378;2022-10-19T09:59:50;17.89;68.79
69393;SHT31;56582;44.624;20.378;2022-10-19T10:02:20;17.81;68.26
69393;SHT31;56582;44.624;20.378;2022-10-19T10:05:02;17.97;68.81
69393;SHT31;56582;44.624;20.378;2022-10-19T10:07:34;17.79;67.86
69393;SHT31;56582;44.624;20.378;2022-10-19T10:10:01;17.79;67.47
69393;SHT31;56582;44.624;20.378;2022-10-19T10:12:26;17.94;67.47
69393;SHT31;56582;44.624;20.378;2022-10-19T10:14:52;17.97;66.98
69393;SHT31;56582;44.624;20.378;2022-10-19T10:17:22;17.87;67.44
69393;SHT31;56582;44.624;20.378;2022-10-19T10:22:29;18.43;66.70
69393;SHT31;56582;44.624;20.378;2022-10-19T10:24:56;18.55;67.47
69393;SHT31;56582;44.624;20.378;2022-10-19T10:27:34;18.47;66.10
69393;SHT31;56582;44.624;20.378;2022-10-19T10:30:08;18.42;65.89
69393;SHT31;56582;44.624;20.378;2022-10-19T10:32:46;18.49;65.28
69393;SHT31;56582;44.624;20.378;2022-10-19T10:35:20;18.33;63.85
69393;SHT31;56582;44.624;20.378;2022-10-19T10:37:47;18.55;65.38
69393;SHT31;56582;44.624;20.378;2022-10-19T10:40:26;18.60;62.59
69393;SHT31;56582;44.624;20.378;2022-10-19T10:42:56;18.66;63.41
69393;SHT31;56582;44.624;20.378;2022-10-19T10:45:37;18.97;64.52
69393;SHT31;56582;44.624;20.378;2022-10-19T10:50:57;18.80;63.88
69393;SHT31;56582;44.624;20.378;2022-10-19T10:53:40;18.66;64.10
69393;SHT31;56582;44.624;20.378;2022-10-19T10:56:26;18.64;64.29
69393;SHT31;56582;44.624;20.378;2022-10-19T10:58:59;18.73;61.89
69393;SHT31;56582;44.624;20.378;2022-10-19T11:01:32;18.73;63.98
69393;SHT31;56582;44.624;20.378;2022-10-19T11:04:05;19.12;63.47
69393;SHT31;56582;44.624;20.378;2022-10-19T11:06:36;19.00;63.69
69393;SHT31;56582;44.624;20.378;2022-10-19T11:09:08;19.15;64.40
69393;SHT31;56582;44.624;20.378;2022-10-19T11:11:38;19.11;61.37
69393;SHT31;56582;44.624;20.378;2022-10-19T11:14:27;19.04;61.70
69393;SHT31;56582;44.624;20.378;2022-10-19T11:16:57;19.16;61.69
69393;SHT31;56582;44.624;20.378;2022-10-19T11:30:21;19.08;61.68
69393;SHT31;56582;44.624;20.378;2022-10-19T11:41:11;19.41;62.75
69393;SHT31;56582;44.624;20.378;2022-10-19T11:46:34;19.44;60.47
69393;SHT31;56582;44.624;20.378;2022-10-19T11:52:25;19.08;61.77
69393;SHT31;56582;44.624;20.378;2022-10-19T11:57:31;19.32;64.13
69393;SHT31;56582;44.624;20.378;2022-10-19T12:00:11;19.14;64.34
69393;SHT31;56582;44.624;20.378;2022-10-19T12:05:12;19.05;65.33
69393;SHT31;56582;44.624;20.378;2022-10-19T12:10:19;19.04;65.04
69393;SHT31;56582;44.624;20.378;2022-10-19T12:12:52;19.04;66.37
69393;SHT31;56582;44.624;20.378;2022-10-19T12:15:24;19.18;66.14
69393;SHT31;56582;44.624;20.378;2022-10-19T12:17:54;19.04;66.98
69393;SHT31;56582;44.624;20.378;2022-10-19T12:20:27;19.05;66.71
69393;SHT31;56582;44.624;20.378;2022-10-19T12:22:56;19.00;66.88
69393;SHT31;56582;44.624;20.378;2022-10-19T12:25:21;18.93;67.40
69393;SHT31;56582;44.624;20.378;2022-10-19T12:27:48;18.68;68.49
69393;SHT31;56582;44.624;20.378;2022-10-19T12:30:22;18.43;69.08
69393;SHT31;56582;44.624;20.378;2022-10-19T12:32:59;18.43;69.35
69393;SHT31;56582;44.624;20.378;2022-10-19T12:41:05;18.26;70.58
69393;SHT31;56582;44.624;20.378;2022-10-19T12:44:08;18.45;70.60
69393;SHT31;56582;44.624;20.378;2022-10-19T12:46:46;18.57;70.15
69393;SHT31;56582;44.624;20.378;2022-10-19T12:51:51;18.30;70.77
69393;SHT31;56582;44.624;20.378;2022-10-19T12:54:21;18.26;71.18
69393;SHT31;56582;44.624;20.378;2022-10-19T12:56:50;18.13;71.87
69393;SHT31;56582;44.624;20.378;2022-10-19T12:59:31;17.98;71.55
69393;SHT31;56582;44.624;20.378;2022-10-19T13:01:57;18.13;72.41
69393;SHT31;56582;44.624;20.378;2022-10-19T13:04:26;17.89;72.97
69393;SHT31;56582;44.624;20.378;2022-10-19T13:07:05;18.04;71.88
69393;SHT31;56582;44.624;20.378;2022-10-19T13:09:40;18.10;72.11
69393;SHT31;56582;44.624;20.378;2022-10-19T13:15:04;17.77;72.53
69393;SHT31;56582;44.624;20.378;2022-10-19T13:22:47;17.61;73.19
69393;SHT31;56582;44.624;20.378;2022-10-19T13:27:53;17.61;73.55
69393;SHT31;56582;44.624;20.378;2022-10-19T13:39:11;17.49;74.63
69393;SHT31;56582;44.624;20.378;2022-10-19T13:41:42;17.51;74.65
69393;SHT31;56582;44.624;20.378;2022-10-19T14:03:07;17.57;75.27
69393;SHT31;56582;44.624;20.378;2022-10-19T14:11:18;17.53;75.99
69393;SHT31;56582;44.624;20.378;2022-10-19T14:13:45;17.41;76.71
69393;SHT31;56582;44.624;20.378;2022-10-19T14:16:19;17.53;75.86
69393;SHT31;56582;44.624;20.378;2022-10-19T14:18:53;17.58;76.43
69393;SHT31;56582;44.624;20.378;2022-10-19T14:21:33;17.74;76.08
69393;SHT31;56582;44.624;20.378;2022-10-19T14:23:59;17.71;76.25
69393;SHT31;56582;44.624;20.378;2022-10-19T14:26:27;17.73;76.39
69393;SHT31;56582;44.624;20.378;2022-10-19T14:28:57;17.68;76.56
69393;SHT31;56582;44.624;20.378;2022-10-19T14:31:30;17.61;76.82
69393;SHT31;56582;44.624;20.378;2022-10-19T14:34:00;17.50;77.52
69393;SHT31;56582;44.624;20.378;2022-10-19T14:36:38;17.58;77.26
69393;SHT31;56582;44.624;20.378;2022-10-19T14:39:07;17.77;76.61
69393;SHT31;56582;44.624;20.378;2022-10-19T14:41:45;17.50;74.93
69393;SHT31;56582;44.624;20.378;2022-10-19T14:44:33;17.58;77.52
69393;SHT31;56582;44.624;20.378;2022-10-19T14:47:00;17.68;76.93
69393;SHT31;56582;44.624;20.378;2022-10-19T14:49:26;17.70;76.17
69393;SHT31;56582;44.624;20.378;2022-10-19T14:51:56;17.74;76.63
69393;SHT31;56582;44.624;20.378;2022-10-19T14:57:15;17.64;77.38
69393;SHT31;56582;44.624;20.378;2022-10-19T14:59:49;17.73;75.82
69393;SHT31;56582;44.624;20.378;2022-10-19T15:02:25;17.79;75.78
69393;SHT31;56582;44.624;20.378;2022-10-19T15:04:53;17.98;75.15
69393;SHT31;56582;44.624;20.378;2022-10-19T15:07:45;17.89;75.72
69393;SHT31;56582;44.624;20.378;2022-10-19T15:10:20;17.74;76.71
69393;SHT31;56582;44.624;20.378;2022-10-19T15:12:47;17.70;77.11
69393;SHT31;56582;44.624;20.378;2022-10-19T15:17:51;17.79;75.16
69393;SHT31;56582;44.624;20.378;2022-10-19T15:20:43;17.91;75.18
69393;SHT31;56582;44.624;20.378;2022-10-19T15:23:36;17.98;74.89
69393;SHT31;56582;44.624;20.378;2022-10-19T15:26:13;18.04;75.63
69393;SHT31;56582;44.624;20.378;2022-10-19T15:28:39;18.05;74.81
69393;SHT31;56582;44.624;20.378;2022-10-19T15:31:31;17.99;75.42
69393;SHT31;56582;44.624;20.378;2022-10-19T15:33:59;17.75;76.43
69393;SHT31;56582;44.624;20.378;2022-10-19T15:36:27;17.78;75.98
69393;SHT31;56582;44.624;20.378;2022-10-19T15:41:28;17.66;77.19
69393;SHT31;56582;44.624;20.378;2022-10-19T15:43:58;17.60;76.89
69393;SHT31;56582;44.624;20.378;2022-10-19T15:54:42;16.93;80.16
69393;SHT31;56582;44.624;20.378;2022-10-19T15:57:29;16.79;81.03
69393;SHT31;56582;44.624;20.378;2022-10-19T15:59:57;16.83;81.28
69393;SHT31;56582;44.624;20.378;2022-10-19T16:02:23;16.79;81.22
69393;SHT31;56582;44.624;20.378;2022-10-19T16:04:50;16.85;80.67
69393;SHT31;56582;44.624;20.378;2022-10-19T16:07:29;16.55;81.63
69393;SHT31;56582;44.624;20.378;2022-10-19T16:09:55;17.15;80.40
69393;SHT31;56582;44.624;20.378;2022-10-19T16:12:22;16.64;81.63
69393;SHT31;56582;44.624;20.378;2022-10-19T16:14:48;16.73;79.96
69393;SHT31;56582;44.624;20.378;2022-10-19T16:17:14;16.86;79.45
69393;SHT31;56582;44.624;20.378;2022-10-19T16:19:40;16.88;79.87
69393;SHT31;56582;44.624;20.378;2022-10-19T16:22:06;16.95;79.06
69393;SHT31;56582;44.624;20.378;2022-10-19T16:24:31;16.91;79.33
69393;SHT31;56582;44.624;20.378;2022-10-19T16:26:57;17.05;78.59
69393;SHT31;56582;44.624;20.378;2022-10-19T16:29:22;17.10;78.28
69393;SHT31;56582;44.624;20.378;2022-10-19T16:31:48;17.05;78.95
69393;SHT31;56582;44.624;20.378;2022-10-19T16:34:13;17.13;78.04
69393;SHT31;56582;44.624;20.378;2022-10-19T16:36:39;17.18;78.47
69393;SHT31;56582;44.624;20.378;2022-10-19T16:39:04;16.96;79.60
69393;SHT31;56582;44.624;20.378;2022-10-19T16:41:30;16.57;80.48
69393;SHT31;56582;44.624;20.378;2022-10-19T16:43:56;16.64;79.87
69393;SHT31;56582;44.624;20.378;2022-10-19T16:46:23;16.73;80.00
69393;SHT31;56582;44.624;20.378;2022-10-19T16:48:48;16.71;80.83
69393;SHT31;56582;44.624;20.378;2022-10-19T16:51:18;16.58;81.04
69393;SHT31;56582;44.624;20.378;2022-10-19T16:53:45;16.62;81.77
69393;SHT31;56582;44.624;20.378;2022-10-19T16:56:11;16.64;80.78
69393;SHT31;56582;44.624;20.378;2022-10-19T16:58:38;16.73;80.36
69393;SHT31;56582;44.624;20.378;2022-10-19T17:01:10;16.68;81.21
69393;SHT31;56582;44.624;20.378;2022-10-19T17:03:36;16.62;80.65
69393;SHT31;56582;44.624;20.378;2022-10-19T17:06:05;16.82;79.38
69393;SHT31;56582;44.624;20.378;2022-10-19T17:08:31;16.92;78.82
69393;SHT31;56582;44.624;20.378;2022-10-19T17:10:57;16.71;80.42
69393;SHT31;56582;44.624;20.378;2022-10-19T17:13:32;16.69;79.34
69393;SHT31;56582;44.624;20.378;2022-10-19T17:16:01;16.78;78.97
69393;SHT31;56582;44.624;20.378;2022-10-19T17:18:27;16.78;78.94
69393;SHT31;56582;44.624;20.378;2022-10-19T17:20:52;16.78;78.71
69393;SHT31;56582;44.624;20.378;2022-10-19T17:23:18;16.83;78.30
69393;SHT31;56582;44.624;20.378;2022-10-19T17:25:47;16.85;78.36
69393;SHT31;56582;44.624;20.378;2022-10-19T17:28:12;16.68;79.13
69393;SHT31;56582;44.624;20.378;2022-10-19T17:30:40;16.52;79.51
69393;SHT31;56582;44.624;20.378;2022-10-19T17:33:06;16.73;78.93
69393;SHT31;56582;44.624;20.378;2022-10-19T17:35:33;16.96;78.21
69393;SHT31;56582;44.624;20.378;2022-10-19T17:37:58;17.24;77.43
69393;SHT31;56582;44.624;20.378;2022-10-19T17:40:24;17.26;76.76
69393;SHT31;56582;44.624;20.378;2022-10-19T17:42:49;17.16;76.60
69393;SHT31;56582;44.624;20.378;2022-10-19T17:45:15;17.05;77.39
69393;SHT31;56582;44.624;20.378;2022-10-19T17:47:40;16.96;77.58
69393;SHT31;56582;44.624;20.378;2022-10-19T17:50:06;16.89;76.95
69393;SHT31;56582;44.624;20.378;2022-10-19T17:52:31;16.58;77.92
69393;SHT31;56582;44.624;20.378;2022-10-19T17:54:57;16.16;78.99